createdAt,value
2022-08-26T00:00:35.653Z,5.13
2022-08-26T00:03:39.320Z,4.93
2022-08-26T00:06:42.465Z,4.97
2022-08-26T00:09:49.963Z,5.10
2022-08-26T00:12:52.114Z,5.00
2022-08-26T00:15:54.160Z,5.28
2022-08-26T00:18:56.652Z,5.90
2022-08-26T00:21:58.410Z,5.13
2022-08-26T00:25:00.230Z,5.28
2022-08-26T00:28:02.036Z,5.63
2022-08-26T00:31:04.609Z,4.72
2022-08-26T00:34:09.513Z,5.35
2022-08-26T00:37:16.135Z,4.88
2022-08-26T00:40:23.571Z,4.53
2022-08-26T00:43:27.078Z,5.70
2022-08-26T00:46:31.700Z,5.45
2022-08-26T00:49:43.910Z,5.18
2022-08-26T00:52:46.566Z,5.65
2022-08-26T00:55:59.658Z,5.47
2022-08-26T00:59:06.313Z,5.22
2022-08-26T01:02:08.831Z,5.20
2022-08-26T01:05:23.209Z,5.45
2022-08-26T01:08:28.365Z,5.80
2022-08-26T01:11:32.051Z,5.38
2022-08-26T01:14:36.707Z,5.20
2022-08-26T01:17:39.627Z,5.55
2022-08-26T01:20:57.736Z,5.45
2022-08-26T01:24:00.080Z,4.70
2022-08-26T01:27:07.878Z,4.93
2022-08-26T01:30:11.916Z,5.75
2022-08-26T01:33:19.405Z,5.07
2022-08-26T01:36:21.447Z,5.35
2022-08-26T01:39:23.699Z,5.95
2022-08-26T01:42:27.330Z,5.30
2022-08-26T01:45:33.586Z,5.10
2022-08-26T01:48:37.991Z,5.30
2022-08-26T01:51:41.050Z,5.25
2022-08-26T01:54:42.978Z,4.95
2022-08-26T01:57:51.359Z,4.90
2022-08-26T02:00:58.603Z,5.50
2022-08-26T02:04:25.689Z,4.90
2022-08-26T02:07:28.611Z,4.90
2022-08-26T02:10:30.420Z,5.63
2022-08-26T02:13:34.915Z,4.82
2022-08-26T02:16:42.140Z,5.07
2022-08-26T02:19:47.366Z,5.53
2022-08-26T02:22:49.973Z,5.57
2022-08-26T02:26:05.708Z,5.50
2022-08-26T02:29:23.731Z,5.47
2022-08-26T02:32:25.846Z,5.22
2022-08-26T02:35:30.323Z,5.30
2022-08-26T02:38:32.973Z,5.28
2022-08-26T02:41:35.302Z,5.20
2022-08-26T02:44:46.576Z,5.35
2022-08-26T02:47:49.935Z,5.30
2022-08-26T02:50:52.152Z,5.18
2022-08-26T02:53:54.400Z,5.18
2022-08-26T02:56:57.699Z,5.10
2022-08-26T03:00:00.851Z,5.32
2022-08-26T03:03:03.839Z,5.63
2022-08-26T03:06:05.887Z,5.47
2022-08-26T03:09:08.535Z,5.18
2022-08-26T03:12:11.769Z,5.70
2022-08-26T03:15:18.402Z,5.38
2022-08-26T03:18:20.558Z,4.93
2022-08-26T03:21:22.411Z,4.82
2022-08-26T03:24:25.462Z,5.45
2022-08-26T03:27:27.207Z,5.13
2022-08-26T03:30:44.677Z,5.20
2022-08-26T03:33:48.216Z,4.80
2022-08-26T03:36:54.318Z,5.68
2022-08-26T03:39:56.673Z,5.60
2022-08-26T03:43:01.016Z,5.00
2022-08-26T03:46:09.445Z,5.95
2022-08-26T03:49:11.497Z,5.63
2022-08-26T03:52:13.516Z,6.00
2022-08-26T03:55:16.488Z,5.03
2022-08-26T03:58:20.705Z,4.93
2022-08-26T04:01:23.157Z,5.22
2022-08-26T04:04:25.759Z,5.53
2022-08-26T04:07:28.094Z,4.60
2022-08-26T04:13:35.523Z,5.13
2022-08-26T04:16:37.416Z,5.18
2022-08-26T04:19:41.127Z,4.72
2022-08-26T04:22:43.226Z,5.05
2022-08-26T04:25:45.274Z,5.00
2022-08-26T04:28:49.156Z,4.75
2022-08-26T04:31:55.447Z,5.28
2022-08-26T04:37:59.773Z,5.18
2022-08-26T04:41:03.268Z,4.93
2022-08-26T04:44:07.843Z,5.82
2022-08-26T04:47:09.693Z,5.88
2022-08-26T04:50:15.196Z,5.82
2022-08-26T04:53:17.893Z,5.00
2022-08-26T04:56:19.698Z,5.35
2022-08-26T04:59:25.158Z,5.05
2022-08-26T05:02:30.424Z,5.35
2022-08-26T05:05:32.213Z,6.40
2022-08-26T05:08:34.051Z,6.03
2022-08-26T05:11:37.306Z,5.13
2022-08-26T05:14:41.260Z,5.05
2022-08-26T05:17:43.281Z,6.45
2022-08-26T05:20:48.990Z,5.13
2022-08-26T05:23:52.082Z,5.65
2022-08-26T05:26:53.878Z,6.05
2022-08-26T05:29:59.039Z,5.50
2022-08-26T05:33:01.926Z,5.70
2022-08-26T05:36:13.074Z,5.20
2022-08-26T05:39:15.210Z,5.15
2022-08-26T05:42:17.208Z,5.43
2022-08-26T05:45:20.256Z,5.03
2022-08-26T05:48:24.211Z,5.70
2022-08-26T05:51:26.668Z,4.80
2022-08-26T05:54:34.827Z,4.85
2022-08-26T05:57:42.227Z,5.07
2022-08-26T06:00:45.480Z,5.55
2022-08-26T06:03:51.744Z,5.05
2022-08-26T06:06:53.612Z,4.88
2022-08-26T06:10:09.969Z,4.88
2022-08-26T06:13:18.487Z,4.97
2022-08-26T06:16:24.179Z,5.32
2022-08-26T06:19:26.046Z,6.00
2022-08-26T06:22:53.597Z,5.22
2022-08-26T06:25:55.422Z,4.50
2022-08-26T06:28:59.342Z,5.45
2022-08-26T06:32:04.737Z,4.88
2022-08-26T06:35:07.302Z,4.47
2022-08-26T06:38:16.199Z,5.55
2022-08-26T06:41:21.011Z,5.30
2022-08-26T06:44:23.311Z,5.30
2022-08-26T06:47:25.674Z,4.97
2022-08-26T06:50:30.091Z,4.95
2022-08-26T06:53:32.200Z,5.10
2022-08-26T06:56:41.182Z,4.95
2022-08-26T06:59:42.904Z,5.05
2022-08-26T07:02:46.986Z,4.88
2022-08-26T07:05:49.373Z,6.20
2022-08-26T07:09:01.762Z,5.65
2022-08-26T07:12:06.804Z,4.85
2022-08-26T07:15:10.272Z,4.95
2022-08-26T07:18:12.172Z,5.18
2022-08-26T07:21:18.253Z,5.03
2022-08-26T07:24:20.101Z,4.88
2022-08-26T07:27:22.787Z,4.90
2022-08-26T07:30:25.763Z,5.00
2022-08-26T07:33:29.141Z,5.13
2022-08-26T07:36:32.514Z,4.57
2022-08-26T07:39:34.742Z,5.20
2022-08-26T07:42:36.840Z,4.63
2022-08-26T07:45:38.610Z,4.70
2022-08-26T07:48:40.536Z,4.90
2022-08-26T07:51:49.302Z,4.60
2022-08-26T07:54:51.097Z,4.22
2022-08-26T07:57:52.984Z,4.38
2022-08-26T08:00:54.841Z,5.35
2022-08-26T08:03:56.641Z,4.20
2022-08-26T08:06:58.523Z,4.80
2022-08-26T08:10:05.590Z,4.03
2022-08-26T08:13:11.927Z,4.57
2022-08-26T08:19:18.753Z,4.43
2022-08-26T08:22:23.586Z,4.40
2022-08-26T08:25:26.177Z,4.38
2022-08-26T08:28:28.575Z,4.30
2022-08-26T08:34:54.899Z,4.35
2022-08-26T08:37:57.169Z,4.63
2022-08-26T08:40:59.026Z,3.90
2022-08-26T08:44:02.360Z,3.55
2022-08-26T08:47:11.790Z,3.55
2022-08-26T08:50:31.770Z,3.60
2022-08-26T08:53:35.848Z,3.65
2022-08-26T08:56:59.747Z,4.13
2022-08-26T09:00:12.031Z,4.28
2022-08-26T09:03:49.031Z,5.00
2022-08-26T09:06:55.572Z,3.90
2022-08-26T09:10:06.539Z,4.03
2022-08-26T09:13:13.689Z,4.13
2022-08-26T09:16:32.368Z,4.20
2022-08-26T09:19:47.647Z,4.63
2022-08-26T09:22:49.507Z,3.85
2022-08-26T09:26:00.193Z,4.63
2022-08-26T09:29:05.665Z,4.28
2022-08-26T09:32:22.128Z,4.30
2022-08-26T09:35:41.423Z,3.80
2022-08-26T09:38:44.491Z,3.60
2022-08-26T09:42:02.755Z,4.22
2022-08-26T09:45:10.428Z,4.03
2022-08-26T09:48:23.582Z,4.10
2022-08-26T09:51:32.209Z,3.67
2022-08-26T09:54:37.760Z,3.75
2022-08-26T09:57:54.932Z,4.10
2022-08-26T10:00:58.924Z,3.60
2022-08-26T10:04:12.729Z,3.47
2022-08-26T10:07:21.507Z,4.05
2022-08-26T10:10:26.743Z,3.33
2022-08-26T10:16:50.724Z,3.50
2022-08-26T10:20:23.338Z,2.90
2022-08-26T10:23:29.808Z,3.17
2022-08-26T10:26:45.261Z,2.95
2022-08-26T10:29:50.725Z,3.60
2022-08-26T10:33:00.790Z,2.97
2022-08-26T10:36:30.303Z,3.38
2022-08-26T10:39:37.021Z,2.85
2022-08-26T10:43:00.551Z,2.95
2022-08-26T10:46:16.355Z,2.90
2022-08-26T10:49:18.860Z,3.05
2022-08-26T10:52:46.341Z,3.00
2022-08-26T10:56:15.779Z,3.60
2022-08-26T10:59:34.119Z,3.65
2022-08-26T11:02:48.334Z,3.10
2022-08-26T11:06:21.276Z,2.90
2022-08-26T11:09:45.254Z,3.10
2022-08-26T11:12:49.743Z,2.67
2022-08-26T11:15:54.258Z,3.13
2022-08-26T11:18:56.063Z,2.95
2022-08-26T11:22:24.925Z,2.72
2022-08-26T11:25:30.959Z,2.83
2022-08-26T11:28:35.557Z,2.95
2022-08-26T11:31:40.419Z,3.15
2022-08-26T11:34:54.054Z,2.85
2022-08-26T11:38:15.121Z,3.10
2022-08-26T11:41:24.290Z,2.72
2022-08-26T11:44:35.887Z,3.10
2022-08-26T11:47:37.754Z,2.80
2022-08-26T11:50:39.435Z,2.78
2022-08-26T11:53:44.957Z,2.90
2022-08-26T11:56:52.491Z,2.75
2022-08-26T11:59:55.385Z,2.97
2022-08-26T12:03:00.411Z,3.60
2022-08-26T12:06:03.267Z,3.15
2022-08-26T12:09:20.153Z,2.83
2022-08-26T12:12:34.663Z,2.80
2022-08-26T12:15:37.014Z,2.80
2022-08-26T12:18:39.155Z,3.33
2022-08-26T12:21:40.939Z,3.13
2022-08-26T12:24:47.881Z,3.03
2022-08-26T12:27:53.737Z,3.42
2022-08-26T12:31:06.509Z,3.17
2022-08-26T12:34:13.111Z,3.28
2022-08-26T12:37:20.091Z,2.85
2022-08-26T12:40:31.156Z,3.20
2022-08-26T12:43:45.036Z,2.97
2022-08-26T12:46:49.738Z,2.83
2022-08-26T12:53:11.298Z,2.88
2022-08-26T12:56:24.797Z,3.58
2022-08-26T12:59:26.787Z,2.60
2022-08-26T13:02:36.089Z,2.92
2022-08-26T13:05:37.994Z,2.40
2022-08-26T13:08:42.599Z,2.70
2022-08-26T13:11:44.942Z,2.60
2022-08-26T13:14:47.145Z,3.05
2022-08-26T13:17:48.825Z,2.83
2022-08-26T13:20:50.675Z,2.92
2022-08-26T13:23:53.099Z,3.20
2022-08-26T13:26:54.914Z,2.70
2022-08-26T13:29:57.841Z,2.85
2022-08-26T13:33:01.083Z,3.00
2022-08-26T13:36:04.611Z,2.47
2022-08-26T13:39:06.616Z,3.47
2022-08-26T13:42:08.994Z,3.10
2022-08-26T13:45:11.303Z,2.72
2022-08-26T13:48:13.177Z,2.90
2022-08-26T13:51:16.527Z,2.95
2022-08-26T13:54:18.324Z,2.80
2022-08-26T13:57:20.095Z,2.88
2022-08-26T14:00:22.317Z,3.17
2022-08-26T14:03:25.007Z,2.80
2022-08-26T14:06:26.879Z,2.60
2022-08-26T14:09:28.621Z,2.88
2022-08-26T14:12:30.525Z,2.85
2022-08-26T14:15:37.765Z,3.03
2022-08-26T14:18:42.557Z,3.47
2022-08-26T14:21:46.417Z,3.22
2022-08-26T14:24:49.253Z,2.72
2022-08-26T14:27:53.206Z,3.05
2022-08-26T14:30:57.499Z,2.75
2022-08-26T14:34:03.365Z,3.78
2022-08-26T14:37:07.391Z,2.60
2022-08-26T14:40:10.729Z,3.03
2022-08-26T14:43:15.901Z,2.70
2022-08-26T14:49:21.891Z,3.17
2022-08-26T14:52:23.940Z,2.88
2022-08-26T14:55:26.778Z,2.70
2022-08-26T14:58:34.944Z,2.88
2022-08-26T15:01:37.778Z,4.70
2022-08-26T15:04:40.598Z,3.20
2022-08-26T15:07:42.302Z,2.38
2022-08-26T15:10:44.352Z,2.85
2022-08-26T15:13:46.422Z,3.10
2022-08-26T15:16:51.090Z,2.90
2022-08-26T15:19:52.849Z,3.40
2022-08-26T15:22:54.719Z,2.97
2022-08-26T15:25:56.743Z,3.35
2022-08-26T15:29:02.992Z,3.22
2022-08-26T15:32:06.661Z,3.10
2022-08-26T15:35:09.447Z,3.30
2022-08-26T15:38:12.548Z,3.05
2022-08-26T15:41:14.502Z,3.05
2022-08-26T15:44:17.208Z,2.72
2022-08-26T15:47:19.318Z,2.88
2022-08-26T15:50:21.430Z,2.92
2022-08-26T15:53:24.455Z,3.10
2022-08-26T15:56:28.552Z,3.42
2022-08-26T15:59:33.192Z,3.25
2022-08-26T16:02:35.269Z,2.58
2022-08-26T16:05:39.047Z,2.90
2022-08-26T16:08:41.542Z,3.05
2022-08-26T16:11:43.523Z,4.95
2022-08-26T16:14:45.478Z,3.17
2022-08-26T16:17:47.364Z,2.67
2022-08-26T16:21:12.470Z,3.20
2022-08-26T16:24:14.397Z,3.35
2022-08-26T16:27:16.241Z,3.40
2022-08-26T16:30:19.765Z,3.08
2022-08-26T16:33:29.114Z,3.38
2022-08-26T16:36:32.109Z,3.25
2022-08-26T16:39:33.826Z,2.88
2022-08-26T16:42:42.038Z,2.80
2022-08-26T16:45:43.946Z,3.25
2022-08-26T16:48:45.859Z,3.08
2022-08-26T16:51:47.625Z,3.55
2022-08-26T16:54:49.515Z,3.30
2022-08-26T16:57:52.048Z,3.00
2022-08-26T17:00:53.854Z,3.03
2022-08-26T17:03:55.626Z,3.97
2022-08-26T17:06:58.025Z,3.45
2022-08-26T17:09:59.865Z,2.72
2022-08-26T17:13:01.662Z,2.97
2022-08-26T17:16:08.668Z,3.40
2022-08-26T17:19:11.150Z,2.80
2022-08-26T17:22:13.492Z,3.08
2022-08-26T17:25:28.148Z,3.33
2022-08-26T17:28:30.023Z,3.30
2022-08-26T17:31:32.587Z,3.30
2022-08-26T17:34:35.043Z,3.33
2022-08-26T17:37:36.887Z,3.35
2022-08-26T17:40:39.600Z,4.25
2022-08-26T17:43:41.895Z,3.30
2022-08-26T17:46:43.816Z,3.03
2022-08-26T17:49:45.701Z,3.08
2022-08-26T17:52:47.683Z,3.20
2022-08-26T17:55:49.864Z,3.17
2022-08-26T17:58:53.793Z,2.92
2022-08-26T18:01:58.664Z,2.83
2022-08-26T18:05:00.783Z,3.70
2022-08-26T18:08:02.911Z,3.10
2022-08-26T18:11:20.440Z,3.55
2022-08-26T18:14:22.484Z,3.90
2022-08-26T18:17:24.551Z,3.00
2022-08-26T18:20:26.755Z,3.47
2022-08-26T18:23:31.489Z,2.97
2022-08-26T18:26:39.126Z,3.40
2022-08-26T18:29:45.641Z,3.17
2022-08-26T18:32:51.829Z,2.83
2022-08-26T18:35:56.412Z,3.10
2022-08-26T18:38:58.973Z,3.00
2022-08-26T18:42:01.014Z,2.95
2022-08-26T18:45:04.855Z,3.00
2022-08-26T18:48:08.068Z,3.10
2022-08-26T18:51:19.768Z,4.45
2022-08-26T18:54:21.825Z,2.90
2022-08-26T18:57:24.196Z,3.05
2022-08-26T19:00:26.010Z,3.45
2022-08-26T19:03:28.767Z,3.20
2022-08-26T19:06:33.048Z,2.72
2022-08-26T19:09:36.049Z,3.17
2022-08-26T19:12:38.454Z,3.45
2022-08-26T19:15:43.347Z,3.40
2022-08-26T19:18:45.664Z,3.33
2022-08-26T19:21:48.158Z,3.28
2022-08-26T19:24:50.062Z,3.33
2022-08-26T19:27:52.014Z,2.85
2022-08-26T19:30:53.846Z,3.25
2022-08-26T19:33:58.044Z,3.55
2022-08-26T19:37:00.065Z,2.75
2022-08-26T19:40:02.211Z,3.70
2022-08-26T19:43:04.988Z,3.83
2022-08-26T19:46:18.496Z,4.18
2022-08-26T19:49:20.322Z,3.92
2022-08-26T19:52:23.952Z,3.65
2022-08-26T19:55:32.136Z,3.88
2022-08-26T19:58:34.113Z,4.30
2022-08-26T20:01:35.968Z,4.15
2022-08-26T20:04:38.538Z,4.30
2022-08-26T20:07:40.630Z,4.45
2022-08-26T20:10:42.475Z,4.50
2022-08-26T20:13:47.152Z,4.70
2022-08-26T20:16:49.395Z,5.22
2022-08-26T20:20:26.846Z,6.18
2022-08-26T20:23:31.484Z,5.03
2022-08-26T20:26:35.317Z,4.65
2022-08-26T20:29:38.511Z,4.63
2022-08-26T20:32:41.593Z,6.60
2022-08-26T20:35:43.524Z,5.10
2022-08-26T20:38:45.992Z,4.80
2022-08-26T20:41:48.096Z,4.75
2022-08-26T20:44:54.226Z,4.47
2022-08-26T20:47:56.725Z,5.13
2022-08-26T20:50:59.779Z,4.97
2022-08-26T20:54:01.636Z,4.97
2022-08-26T20:57:03.531Z,4.95
2022-08-26T21:00:06.486Z,4.68
2022-08-26T21:03:08.243Z,4.75
2022-08-26T21:06:10.489Z,4.72
2022-08-26T21:09:14.584Z,5.22
2022-08-26T21:15:20.019Z,5.03
2022-08-26T21:18:21.875Z,4.50
2022-08-26T21:21:27.386Z,4.93
2022-08-26T21:24:29.183Z,4.57
2022-08-26T21:27:31.187Z,4.72
2022-08-26T21:30:34.251Z,5.35
2022-08-26T21:33:36.324Z,4.60
2022-08-26T21:36:38.142Z,5.28
2022-08-26T21:39:40.003Z,4.90
2022-08-26T21:42:41.981Z,5.13
2022-08-26T21:45:43.834Z,5.35
2022-08-26T21:48:51.310Z,4.78
2022-08-26T21:51:53.235Z,5.32
2022-08-26T21:54:59.945Z,5.35
2022-08-26T21:58:02.429Z,5.22
2022-08-26T22:01:09.535Z,5.63
2022-08-26T22:04:11.520Z,5.15
2022-08-26T22:07:13.487Z,6.00
2022-08-26T22:10:15.335Z,5.28
2022-08-26T22:13:21.849Z,5.60
2022-08-26T22:16:26.886Z,5.30
2022-08-26T22:19:31.747Z,5.18
2022-08-26T22:22:35.980Z,4.85
2022-08-26T22:25:38.109Z,5.57
2022-08-26T22:28:40.108Z,5.43
2022-08-26T22:31:43.497Z,4.88
2022-08-26T22:34:45.499Z,5.03
2022-08-26T22:37:47.473Z,5.03
2022-08-26T22:40:52.005Z,5.72
2022-08-26T22:43:54.101Z,5.43
2022-08-26T22:46:56.038Z,5.55
2022-08-26T22:49:59.418Z,5.15
2022-08-26T22:53:01.248Z,5.25
2022-08-26T22:56:03.612Z,5.53
2022-08-26T22:59:07.887Z,5.68
2022-08-26T23:02:11.959Z,5.30
2022-08-26T23:05:14.788Z,5.50
2022-08-26T23:08:16.923Z,5.00
2022-08-26T23:11:19.150Z,5.40
2022-08-26T23:14:20.953Z,5.65
2022-08-26T23:17:22.850Z,5.25
2022-08-26T23:20:24.834Z,5.07
2022-08-26T23:23:27.674Z,5.20
2022-08-26T23:26:29.536Z,4.95
2022-08-26T23:29:31.330Z,5.15
2022-08-26T23:32:33.104Z,5.60
2022-08-26T23:35:34.917Z,5.32
2022-08-26T23:38:36.754Z,5.07
2022-08-26T23:41:39.059Z,5.03
2022-08-26T23:44:41.072Z,4.97
2022-08-26T23:47:42.826Z,5.60
2022-08-26T23:51:03.433Z,4.93
2022-08-26T23:54:05.221Z,4.95
2022-08-26T23:57:07.886Z,4.78
